createdAt,value
2024-02-01T00:00:38.397Z,42.10
2024-02-01T00:03:05.726Z,40.00
2024-02-01T00:05:32.694Z,41.80
2024-02-01T00:07:59.567Z,41.20
2024-02-01T00:10:26.340Z,38.30
2024-02-01T00:12:56.005Z,38.40
2024-02-01T00:15:23.132Z,41.80
2024-02-01T00:17:50.097Z,43.80
2024-02-01T00:20:17.232Z,46.90
2024-02-01T00:22:44.057Z,40.00
2024-02-01T00:25:11.203Z,40.40
2024-02-01T00:27:38.063Z,41.10
2024-02-01T00:30:05.577Z,39.40
2024-02-01T00:32:33.338Z,41.10
2024-02-01T00:35:00.470Z,40.20
2024-02-01T00:37:27.796Z,40.30
2024-02-01T00:39:54.716Z,39.60
2024-02-01T00:42:21.869Z,41.70
2024-02-01T00:44:49.035Z,40.50
2024-02-01T00:47:16.091Z,39.20
2024-02-01T00:49:45.511Z,43.60
2024-02-01T00:52:14.546Z,42.60
2024-02-01T00:54:42.928Z,39.20
2024-02-01T00:57:10.270Z,40.60
2024-02-01T00:59:37.465Z,42.20
2024-02-01T01:02:04.735Z,42.90
2024-02-01T01:04:31.797Z,43.80
2024-02-01T01:06:58.941Z,44.50
2024-02-01T01:09:25.788Z,48.90
2024-02-01T01:11:55.388Z,51.30
2024-02-01T01:14:22.365Z,49.50
2024-02-01T01:16:49.236Z,47.20
2024-02-01T01:19:16.361Z,46.50
2024-02-01T01:21:43.398Z,48.50
2024-02-01T01:24:10.602Z,45.60
2024-02-01T01:26:37.557Z,49.40
2024-02-01T01:29:04.413Z,47.40
2024-02-01T01:31:31.213Z,48.30
2024-02-01T01:33:58.320Z,49.20
2024-02-01T01:36:25.443Z,46.10
2024-02-01T01:38:52.298Z,49.30
2024-02-01T01:41:19.503Z,47.40
2024-02-01T01:43:46.361Z,49.20
2024-02-01T01:46:13.531Z,53.20
2024-02-01T01:48:41.053Z,55.20
2024-02-01T01:51:09.355Z,50.90
2024-02-01T01:53:39.444Z,51.80
2024-02-01T01:56:07.339Z,48.60
2024-02-01T01:58:36.453Z,48.10
2024-02-01T02:01:05.018Z,53.70
2024-02-01T02:03:37.632Z,47.40
2024-02-01T02:06:05.207Z,44.90
2024-02-01T02:08:32.258Z,45.00
2024-02-01T02:11:00.238Z,45.90
2024-02-01T02:13:26.989Z,44.50
2024-02-01T02:15:54.278Z,42.10
2024-02-01T02:18:21.470Z,44.90
2024-02-01T02:20:53.509Z,43.30
2024-02-01T02:23:21.076Z,49.70
2024-02-01T02:25:51.241Z,46.90
2024-02-01T02:28:18.323Z,47.50
2024-02-01T02:30:45.703Z,46.90
2024-02-01T02:33:12.941Z,44.30
2024-02-01T02:35:40.284Z,47.30
2024-02-01T02:38:07.081Z,46.70
2024-02-01T02:40:34.002Z,43.00
2024-02-01T02:43:00.877Z,40.50
2024-02-01T02:45:30.250Z,45.30
2024-02-01T02:47:59.104Z,48.70
2024-02-01T02:50:26.189Z,49.60
2024-02-01T02:52:55.195Z,50.20
2024-02-01T02:55:22.091Z,52.30
2024-02-01T02:57:48.966Z,54.10
2024-02-01T03:00:20.738Z,55.30
2024-02-01T03:02:49.542Z,54.30
2024-02-01T03:05:18.030Z,55.80
2024-02-01T03:07:48.025Z,58.20
2024-02-01T03:10:17.083Z,56.50
2024-02-01T03:12:47.697Z,54.80
2024-02-01T03:15:14.937Z,55.40
2024-02-01T03:17:46.500Z,56.30
2024-02-01T03:20:19.409Z,56.00
2024-02-01T03:22:47.786Z,57.00
2024-02-01T03:25:15.380Z,59.20
2024-02-01T03:27:45.276Z,56.50
2024-02-01T03:30:13.551Z,59.60
2024-02-01T03:32:41.061Z,57.70
2024-02-01T03:35:09.541Z,56.00
2024-02-01T03:37:36.418Z,58.50
2024-02-01T03:40:06.901Z,59.00
2024-02-01T03:42:33.818Z,56.40
2024-02-01T03:45:00.973Z,58.50
2024-02-01T03:47:28.295Z,59.50
2024-02-01T03:49:55.729Z,59.30
2024-02-01T03:52:23.072Z,59.90
2024-02-01T03:54:50.025Z,59.60
2024-02-01T03:57:17.512Z,56.30
2024-02-01T03:59:44.998Z,56.00
2024-02-01T04:02:16.078Z,57.30
2024-02-01T04:04:47.166Z,57.70
2024-02-01T04:07:20.693Z,59.20
2024-02-01T04:09:48.802Z,58.90
2024-02-01T04:12:16.924Z,58.20
2024-02-01T04:14:44.164Z,58.50
2024-02-01T04:17:11.134Z,58.20
2024-02-01T04:19:37.938Z,61.20
2024-02-01T04:22:08.108Z,59.90
2024-02-01T04:24:35.156Z,61.10
2024-02-01T04:27:02.461Z,58.00
2024-02-01T04:29:29.898Z,63.70
2024-02-01T04:31:57.142Z,57.70
2024-02-01T04:34:24.328Z,59.90
2024-02-01T04:36:51.388Z,57.10
2024-02-01T04:39:18.353Z,56.90
2024-02-01T04:41:45.861Z,57.90
2024-02-01T04:44:12.743Z,51.70
2024-02-01T04:46:39.805Z,54.90
2024-02-01T04:49:14.263Z,55.90
2024-02-01T04:51:42.908Z,55.00
2024-02-01T04:54:11.610Z,53.60
2024-02-01T04:56:41.544Z,53.30
2024-02-01T04:59:27.451Z,49.60
2024-02-01T05:01:54.578Z,53.30
2024-02-01T05:04:22.239Z,57.10
2024-02-01T05:06:51.697Z,56.30
2024-02-01T05:09:24.852Z,52.40
2024-02-01T05:11:51.993Z,57.20
2024-02-01T05:14:20.510Z,55.60
2024-02-01T05:16:50.387Z,52.70
2024-02-01T05:19:18.571Z,55.30
2024-02-01T05:21:45.950Z,52.90
2024-02-01T05:24:16.094Z,61.00
2024-02-01T05:26:47.807Z,58.70
2024-02-01T05:29:14.867Z,58.00
2024-02-01T05:31:48.790Z,55.30
2024-02-01T05:34:19.259Z,52.50
2024-02-01T05:36:48.624Z,52.70
2024-02-01T05:39:26.807Z,57.80
2024-02-01T05:41:54.346Z,54.60
2024-02-01T05:44:25.245Z,52.70
2024-02-01T05:46:56.561Z,54.40
2024-02-01T05:49:30.602Z,51.10
2024-02-01T05:52:05.371Z,49.80
2024-02-01T05:54:34.593Z,51.50
2024-02-01T05:57:05.333Z,49.00
2024-02-01T05:59:32.887Z,49.60
2024-02-01T06:02:00.086Z,48.60
2024-02-01T06:04:29.039Z,49.60
2024-02-01T06:06:56.049Z,48.80
2024-02-01T06:09:22.932Z,44.10
2024-02-01T06:11:50.540Z,40.70
2024-02-01T06:14:18.093Z,39.70
2024-02-01T06:16:45.839Z,41.30
2024-02-01T06:19:13.623Z,46.30
2024-02-01T06:21:42.931Z,45.40
2024-02-01T06:24:13.240Z,41.70
2024-02-01T06:26:40.504Z,42.40
2024-02-01T06:29:13.668Z,42.30
2024-02-01T06:31:41.398Z,39.70
2024-02-01T06:34:18.579Z,34.40
2024-02-01T06:36:52.374Z,34.30
2024-02-01T06:39:39.693Z,37.00
2024-02-01T06:42:16.024Z,31.00
2024-02-01T06:44:48.145Z,31.40
2024-02-01T06:47:25.527Z,30.30
2024-02-01T06:50:02.590Z,31.00
2024-02-01T06:52:44.433Z,32.10
2024-02-01T06:55:11.771Z,32.50
2024-02-01T07:00:56.007Z,38.50
2024-02-01T07:03:26.357Z,32.10
2024-02-01T07:06:07.334Z,31.40
2024-02-01T07:08:40.444Z,29.50
2024-02-01T07:11:13.985Z,29.80
2024-02-01T07:13:51.723Z,29.50
2024-02-01T07:16:23.619Z,31.20
2024-02-01T07:19:10.742Z,31.60
2024-02-01T07:21:57.247Z,32.30
2024-02-01T07:24:40.317Z,41.10
2024-02-01T07:27:27.468Z,43.80
2024-02-01T07:30:14.897Z,51.60
2024-02-01T07:33:01.686Z,58.60
2024-02-01T07:35:47.852Z,56.20
2024-02-01T07:38:33.628Z,56.30
2024-02-01T07:41:19.624Z,52.40
2024-02-01T07:44:05.124Z,52.70
2024-02-01T07:46:50.354Z,54.90
2024-02-01T07:49:36.297Z,55.50
2024-02-01T07:52:22.095Z,55.10
2024-02-01T07:55:07.701Z,53.20
2024-02-01T07:57:45.168Z,53.00
2024-02-01T08:00:19.106Z,54.10
2024-02-01T08:03:06.390Z,53.40
2024-02-01T08:05:52.342Z,52.00
2024-02-01T08:08:19.884Z,51.20
2024-02-01T08:10:47.027Z,53.30
2024-02-01T08:13:14.066Z,52.60
2024-02-01T08:15:45.416Z,53.10
2024-02-01T08:18:13.655Z,53.10
2024-02-01T08:20:44.226Z,52.60
2024-02-01T08:23:14.826Z,51.20
2024-02-01T08:25:42.000Z,51.70
2024-02-01T08:28:10.830Z,51.70
2024-02-01T08:30:37.774Z,49.70
2024-02-01T08:33:05.700Z,50.10
2024-02-01T08:35:38.000Z,48.60
2024-02-01T08:38:06.344Z,45.60
2024-02-01T08:40:33.662Z,43.90
2024-02-01T08:43:01.278Z,43.20
2024-02-01T08:45:30.439Z,42.90
2024-02-01T08:48:04.687Z,42.30
2024-02-01T08:50:44.666Z,43.80
2024-02-01T08:53:13.310Z,46.50
2024-02-01T08:55:41.078Z,46.60
2024-02-01T08:58:10.541Z,43.60
2024-02-01T09:00:39.740Z,41.60
2024-02-01T09:03:10.093Z,44.40
2024-02-01T09:05:42.658Z,42.90
2024-02-01T09:08:13.936Z,42.80
2024-02-01T09:11:02.763Z,41.40
2024-02-01T09:13:31.588Z,44.80
2024-02-01T09:15:59.899Z,44.50
2024-02-01T09:18:27.459Z,46.20
2024-02-01T09:20:54.749Z,44.50
2024-02-01T09:23:23.890Z,43.40
2024-02-01T09:25:50.965Z,41.90
2024-02-01T09:28:17.750Z,41.70
2024-02-01T09:30:48.793Z,44.80
2024-02-01T09:33:17.861Z,41.00
2024-02-01T09:35:46.691Z,44.60
2024-02-01T09:38:14.242Z,42.90
2024-02-01T09:40:45.247Z,43.90
2024-02-01T09:43:23.077Z,41.90
2024-02-01T09:45:51.587Z,42.00
2024-02-01T09:48:22.797Z,42.90
2024-02-01T09:50:55.344Z,41.00
2024-02-01T09:53:28.275Z,42.60
2024-02-01T09:55:59.956Z,41.10
2024-02-01T09:58:28.849Z,44.10
2024-02-01T10:00:56.451Z,39.40
2024-02-01T10:03:38.345Z,43.60
2024-02-01T10:06:06.914Z,42.40
2024-02-01T10:08:34.902Z,38.50
2024-02-01T10:11:05.087Z,39.10
2024-02-01T10:13:39.242Z,40.10
2024-02-01T10:16:26.906Z,37.70
2024-02-01T10:18:56.917Z,40.40
2024-02-01T10:26:37.993Z,35.30
2024-02-01T10:29:08.577Z,35.30
2024-02-01T10:31:43.300Z,37.90
2024-02-01T10:34:14.996Z,36.30
2024-02-01T10:36:51.908Z,36.80
2024-02-01T10:39:27.681Z,36.70
2024-02-01T10:41:59.907Z,36.60
2024-02-01T10:44:35.513Z,33.70
2024-02-01T10:47:06.916Z,30.70
2024-02-01T10:49:43.020Z,30.60
2024-02-01T10:52:11.191Z,27.40
2024-02-01T10:54:39.929Z,28.80
2024-02-01T10:57:12.253Z,25.10
2024-02-01T10:59:44.700Z,25.90
2024-02-01T11:02:12.728Z,25.00
2024-02-01T11:04:44.266Z,31.20
2024-02-01T11:07:22.696Z,30.90
2024-02-01T11:09:51.454Z,31.10
2024-02-01T11:12:26.819Z,32.90
2024-02-01T11:14:54.669Z,31.10
2024-02-01T11:17:27.956Z,28.90
2024-02-01T11:19:57.434Z,28.50
2024-02-01T11:22:24.508Z,28.00
2024-02-01T11:25:07.845Z,26.40
2024-02-01T11:27:38.291Z,27.60
2024-02-01T11:30:21.438Z,22.00
2024-02-01T11:32:48.920Z,24.60
2024-02-01T11:35:19.033Z,21.60
2024-02-01T11:37:46.030Z,21.70
2024-02-01T11:40:19.934Z,19.30
2024-02-01T11:42:51.325Z,17.80
2024-02-01T11:45:18.671Z,20.60
2024-02-01T11:47:46.100Z,20.40
2024-02-01T11:50:13.386Z,19.90
2024-02-01T11:53:07.282Z,20.80
2024-02-01T11:55:36.053Z,19.10
2024-02-01T11:58:04.211Z,15.60
2024-02-01T12:00:44.299Z,14.80
2024-02-01T12:03:21.361Z,11.80
2024-02-01T12:05:49.957Z,11.00
2024-02-01T12:08:17.691Z,8.90
2024-02-01T12:10:47.800Z,8.90
2024-02-01T12:13:17.270Z,7.90
2024-02-01T12:15:53.774Z,6.80
2024-02-01T12:18:21.928Z,8.40
2024-02-01T12:20:49.581Z,5.60
2024-02-01T12:23:19.200Z,4.30
2024-02-01T12:25:47.679Z,3.70
2024-02-01T12:28:15.849Z,3.60
2024-02-01T12:30:46.206Z,2.60
2024-02-01T12:33:14.393Z,2.80
2024-02-01T12:35:46.114Z,1.50
2024-02-01T12:38:16.310Z,2.40
2024-02-01T12:40:46.613Z,2.20
2024-02-01T12:43:14.544Z,2.80
2024-02-01T12:45:48.232Z,1.90
2024-02-01T12:48:17.367Z,2.40
2024-02-01T12:50:45.591Z,3.40
2024-02-01T12:53:15.381Z,5.30
2024-02-01T12:55:42.333Z,2.40
2024-02-01T12:58:09.414Z,1.80
2024-02-01T13:00:36.646Z,2.80
2024-02-01T13:03:04.795Z,1.90
2024-02-01T13:05:31.874Z,2.50
2024-02-01T13:07:58.810Z,2.20
2024-02-01T13:10:25.963Z,1.70
2024-02-01T13:13:00.199Z,1.60
2024-02-01T13:15:28.464Z,1.70
2024-02-01T13:17:57.139Z,1.80
2024-02-01T13:20:27.589Z,2.40
2024-02-01T13:22:55.048Z,3.40
2024-02-01T13:25:22.268Z,1.90
2024-02-01T13:27:51.380Z,2.50
2024-02-01T13:30:20.394Z,1.70
2024-02-01T13:32:50.594Z,1.50
2024-02-01T13:35:17.899Z,1.80
2024-02-01T13:37:48.165Z,1.70
2024-02-01T13:40:18.913Z,1.70
2024-02-01T13:42:47.069Z,2.20
2024-02-01T13:45:15.071Z,1.40
2024-02-01T13:47:52.455Z,1.90
2024-02-01T13:50:22.596Z,1.80
2024-02-01T13:52:50.973Z,1.90
2024-02-01T13:55:17.869Z,1.60
2024-02-01T13:57:44.817Z,1.80
2024-02-01T14:00:18.285Z,4.00
2024-02-01T14:02:55.251Z,2.50
2024-02-01T14:05:23.519Z,2.90
2024-02-01T14:07:53.779Z,3.10
2024-02-01T14:10:22.422Z,2.70
2024-02-01T14:12:49.245Z,3.30
2024-02-01T14:15:16.627Z,2.20
2024-02-01T14:17:46.510Z,3.10
2024-02-01T14:20:17.002Z,2.60
2024-02-01T14:22:45.109Z,2.20
2024-02-01T14:25:15.396Z,2.70
2024-02-01T14:27:43.085Z,2.10
2024-02-01T14:30:14.007Z,2.90
2024-02-01T14:32:42.128Z,3.30
2024-02-01T14:35:09.755Z,2.60
2024-02-01T14:37:36.850Z,2.70
2024-02-01T14:40:04.230Z,1.90
2024-02-01T14:42:31.133Z,2.90
2024-02-01T14:44:58.313Z,2.60
2024-02-01T14:47:25.439Z,3.00
2024-02-01T14:49:52.697Z,2.50
2024-02-01T14:52:22.684Z,3.20
2024-02-01T14:54:51.769Z,2.90
2024-02-01T14:57:20.167Z,3.20
2024-02-01T14:59:47.057Z,2.70
2024-02-01T15:02:16.250Z,2.90
2024-02-01T15:04:43.315Z,3.60
2024-02-01T15:07:10.423Z,3.30
2024-02-01T15:09:38.354Z,3.00
2024-02-01T15:12:07.251Z,4.20
2024-02-01T15:14:36.953Z,5.90
2024-02-01T15:17:04.791Z,5.10
2024-02-01T15:19:34.900Z,4.80
2024-02-01T15:22:02.262Z,5.40
2024-02-01T15:24:29.252Z,6.00
2024-02-01T15:26:57.920Z,5.50
2024-02-01T15:29:25.334Z,5.30
2024-02-01T15:31:53.160Z,5.60
2024-02-01T15:34:20.617Z,5.50
2024-02-01T15:36:52.464Z,5.10
2024-02-01T15:39:19.629Z,4.90
2024-02-01T15:41:47.571Z,4.70
2024-02-01T15:44:14.973Z,6.00
2024-02-01T15:46:42.047Z,6.40
2024-02-01T15:49:13.511Z,8.40
2024-02-01T15:51:44.533Z,26.10
2024-02-01T15:54:11.826Z,20.70
2024-02-01T15:56:38.811Z,14.80
2024-02-01T15:59:06.137Z,12.50
2024-02-01T16:01:34.018Z,11.40
2024-02-01T16:04:02.742Z,11.70
2024-02-01T16:06:29.682Z,16.40
2024-02-01T16:08:59.430Z,13.40
2024-02-01T16:11:37.229Z,16.50
2024-02-01T16:14:07.484Z,17.40
2024-02-01T16:16:39.780Z,17.00
2024-02-01T16:19:24.808Z,15.70
2024-02-01T16:21:53.451Z,16.10
2024-02-01T16:24:57.912Z,18.10
2024-02-01T16:28:01.460Z,17.80
2024-02-01T16:30:57.306Z,16.80
2024-02-01T16:33:27.706Z,20.80
2024-02-01T16:36:06.338Z,17.70
2024-02-01T16:38:45.256Z,19.10
2024-02-01T16:41:31.474Z,18.30
2024-02-01T16:43:59.622Z,18.00
2024-02-01T16:46:47.143Z,17.60
2024-02-01T16:49:17.796Z,16.80
2024-02-01T16:51:46.376Z,16.60
2024-02-01T16:54:19.228Z,17.30
2024-02-01T16:56:49.321Z,18.90
2024-02-01T16:59:18.223Z,20.00
2024-02-01T17:01:49.259Z,19.50
2024-02-01T17:04:39.954Z,18.20
2024-02-01T17:07:20.884Z,18.90
2024-02-01T17:12:14.823Z,17.70
2024-02-01T17:14:41.768Z,17.10
2024-02-01T17:17:26.436Z,18.00
2024-02-01T17:20:11.797Z,18.00
2024-02-01T17:22:39.051Z,21.20
2024-02-01T17:25:08.789Z,18.90
2024-02-01T17:27:43.867Z,21.20
2024-02-01T17:30:46.124Z,19.80
2024-02-01T17:33:49.718Z,19.50
2024-02-01T17:36:19.183Z,19.00
2024-02-01T17:38:52.834Z,21.90
2024-02-01T17:41:25.721Z,23.10
2024-02-01T17:43:52.832Z,22.70
2024-02-01T17:46:59.205Z,26.60
2024-02-01T17:49:50.870Z,39.20
2024-02-01T17:52:46.531Z,28.20
2024-02-01T17:58:42.198Z,26.80
2024-02-01T18:01:23.387Z,23.70
2024-02-01T18:04:02.032Z,24.40
2024-02-01T18:06:41.619Z,25.80
2024-02-01T18:09:18.492Z,22.80
2024-02-01T18:11:52.281Z,20.70
2024-02-01T18:14:19.514Z,18.40
2024-02-01T18:16:46.697Z,18.00
2024-02-01T18:19:23.351Z,19.50
2024-02-01T18:21:53.721Z,22.00
2024-02-01T18:24:31.332Z,19.80
2024-02-01T18:27:04.169Z,18.90
2024-02-01T18:29:59.994Z,18.20
2024-02-01T18:32:40.291Z,16.70
2024-02-01T18:35:35.574Z,15.10
2024-02-01T18:38:12.882Z,15.70
2024-02-01T18:40:44.474Z,15.10
2024-02-01T18:43:11.576Z,16.60
2024-02-01T18:45:45.574Z,16.30
2024-02-01T18:48:36.833Z,16.20
2024-02-01T18:51:09.073Z,16.50
2024-02-01T18:53:52.740Z,18.60
2024-02-01T18:56:26.119Z,16.80
2024-02-01T18:58:54.564Z,19.60
2024-02-01T19:01:27.485Z,17.80
2024-02-01T19:04:00.531Z,20.30
2024-02-01T19:06:39.708Z,17.40
2024-02-01T19:09:22.119Z,14.10
2024-02-01T19:11:57.104Z,11.00
2024-02-01T19:14:44.136Z,12.30
2024-02-01T19:17:18.068Z,11.10
2024-02-01T19:19:47.432Z,12.00
2024-02-01T19:22:40.642Z,12.80
2024-02-01T19:25:20.184Z,12.90
2024-02-01T19:27:54.549Z,11.90
2024-02-01T19:30:31.539Z,12.00
2024-02-01T19:33:01.438Z,12.70
2024-02-01T19:35:32.902Z,12.60
2024-02-01T19:38:09.447Z,13.40
2024-02-01T19:40:39.548Z,15.00
2024-02-01T19:43:07.353Z,17.30
2024-02-01T19:45:35.978Z,18.60
2024-02-01T19:48:04.547Z,17.50
2024-02-01T19:50:31.524Z,20.60
2024-02-01T19:52:58.708Z,19.40
2024-02-01T19:55:28.976Z,17.50
2024-02-01T19:57:56.642Z,17.80
2024-02-01T20:00:26.012Z,20.80
2024-02-01T20:02:57.437Z,18.00
2024-02-01T20:05:24.664Z,17.20
2024-02-01T20:07:51.743Z,15.60
2024-02-01T20:10:19.186Z,16.70
2024-02-01T20:12:46.967Z,18.00
2024-02-01T20:15:14.655Z,22.50
2024-02-01T20:17:42.061Z,17.20
2024-02-01T20:20:19.410Z,18.10
2024-02-01T20:22:46.415Z,18.90
2024-02-01T20:25:31.856Z,20.00
2024-02-01T20:28:02.158Z,20.00
2024-02-01T20:30:31.059Z,20.60
2024-02-01T20:33:01.146Z,19.60
2024-02-01T20:35:36.042Z,18.90
2024-02-01T20:38:15.342Z,20.20
2024-02-01T20:40:43.805Z,20.00
2024-02-01T20:43:16.909Z,17.30
2024-02-01T20:46:01.713Z,16.60
2024-02-01T20:48:48.110Z,16.40
2024-02-01T20:51:58.477Z,17.40
2024-02-01T20:54:34.920Z,14.30
2024-02-01T20:57:29.082Z,14.70
2024-02-01T20:59:57.297Z,11.40
2024-02-01T21:02:46.918Z,12.00
2024-02-01T21:05:14.134Z,12.90
2024-02-01T21:07:42.017Z,14.50
2024-02-01T21:10:22.558Z,12.80
2024-02-01T21:13:02.896Z,13.40
2024-02-01T21:15:31.533Z,11.50
2024-02-01T21:18:01.636Z,20.70
2024-02-01T21:20:37.709Z,18.10
2024-02-01T21:23:09.884Z,15.50
2024-02-01T21:25:57.912Z,14.80
2024-02-01T21:28:28.959Z,19.30
2024-02-01T21:30:58.740Z,15.70
2024-02-01T21:33:28.801Z,14.50
2024-02-01T21:35:57.947Z,16.00
2024-02-01T21:38:27.867Z,14.50
2024-02-01T21:40:56.201Z,18.50
2024-02-01T21:43:24.319Z,16.80
2024-02-01T21:45:53.924Z,16.10
2024-02-01T21:48:21.125Z,14.70
2024-02-01T21:50:48.745Z,15.40
2024-02-01T21:53:15.749Z,14.50
2024-02-01T21:55:43.905Z,15.80
2024-02-01T21:58:12.225Z,15.20
2024-02-01T22:00:39.353Z,19.60
2024-02-01T22:03:06.637Z,21.10
2024-02-01T22:05:33.985Z,23.10
2024-02-01T22:08:00.942Z,24.90
2024-02-01T22:10:30.472Z,23.80
2024-02-01T22:12:57.427Z,23.10
2024-02-01T22:15:25.677Z,24.20
2024-02-01T22:17:53.498Z,22.30
2024-02-01T22:20:20.847Z,23.00
2024-02-01T22:22:47.933Z,25.10
2024-02-01T22:25:17.519Z,24.90
2024-02-01T22:27:44.438Z,24.10
2024-02-01T22:30:11.713Z,24.70
2024-02-01T22:32:41.860Z,24.90
2024-02-01T22:35:12.365Z,24.20
2024-02-01T22:37:40.059Z,25.00
2024-02-01T22:40:07.969Z,37.60
2024-02-01T22:42:37.796Z,78.80
2024-02-01T22:45:08.844Z,34.30
2024-02-01T22:47:36.873Z,29.40
2024-02-01T22:50:04.276Z,26.70
2024-02-01T22:52:33.440Z,26.00
2024-02-01T22:55:00.515Z,23.40
2024-02-01T22:57:27.705Z,25.50
2024-02-01T22:59:55.202Z,23.90
2024-02-01T23:02:22.174Z,20.40
2024-02-01T23:04:49.160Z,22.30
2024-02-01T23:07:16.220Z,22.20
2024-02-01T23:09:48.509Z,18.90
2024-02-01T23:12:15.462Z,19.70
2024-02-01T23:14:42.360Z,18.70
2024-02-01T23:17:12.155Z,18.20
2024-02-01T23:19:42.163Z,18.60
2024-02-01T23:22:11.799Z,17.50
2024-02-01T23:24:42.055Z,19.20
2024-02-01T23:27:09.320Z,16.30
2024-02-01T23:29:36.974Z,27.50
2024-02-01T23:32:06.557Z,29.00
2024-02-01T23:34:45.183Z,21.20
2024-02-01T23:37:15.553Z,17.80
2024-02-01T23:39:46.662Z,18.60
2024-02-01T23:42:21.062Z,17.60
2024-02-01T23:44:48.313Z,18.80
2024-02-01T23:47:18.264Z,18.10
2024-02-01T23:49:48.440Z,17.10
2024-02-01T23:54:47.126Z,15.10
2024-02-01T23:57:14.474Z,18.80
2024-02-01T23:59:41.422Z,16.40
